createdAt,value
2022-10-24T00:00:58.323Z,959.39
2022-10-24T00:03:24.628Z,959.43
2022-10-24T00:05:50.984Z,959.48
2022-10-24T00:08:17.328Z,959.42
2022-10-24T00:10:43.734Z,959.37
2022-10-24T00:13:10.145Z,959.37
2022-10-24T00:15:36.421Z,959.31
2022-10-24T00:18:02.764Z,959.36
2022-10-24T00:20:29.128Z,959.37
2022-10-24T00:22:55.519Z,959.29
2022-10-24T00:25:21.899Z,959.25
2022-10-24T00:27:48.219Z,959.26
2022-10-24T00:30:14.589Z,959.29
2022-10-24T00:32:41.150Z,959.28
2022-10-24T00:35:07.280Z,959.23
2022-10-24T00:37:33.618Z,959.26
2022-10-24T00:39:59.990Z,959.18
2022-10-24T00:42:26.367Z,959.21
2022-10-24T00:44:52.697Z,959.20
2022-10-24T00:47:19.044Z,959.23
2022-10-24T00:49:45.377Z,959.20
2022-10-24T00:52:11.726Z,959.24
2022-10-24T00:54:38.047Z,959.23
2022-10-24T00:57:04.455Z,959.28
2022-10-24T00:59:30.773Z,959.27
2022-10-24T01:01:57.106Z,959.32
2022-10-24T01:04:23.417Z,959.32
2022-10-24T01:06:49.753Z,959.28
2022-10-24T01:09:16.104Z,959.38
2022-10-24T01:11:42.448Z,959.38
2022-10-24T01:14:08.793Z,959.32
2022-10-24T01:16:35.110Z,959.33
2022-10-24T01:19:01.453Z,959.35
2022-10-24T01:21:27.772Z,959.31
2022-10-24T01:23:54.173Z,959.36
2022-10-24T01:26:20.507Z,959.29
2022-10-24T01:28:46.828Z,959.32
2022-10-24T01:31:13.172Z,959.32
2022-10-24T01:33:39.490Z,959.30
2022-10-24T01:36:05.842Z,959.28
2022-10-24T01:38:32.164Z,959.31
2022-10-24T01:40:58.518Z,959.26
2022-10-24T01:43:24.842Z,959.23
2022-10-24T01:45:51.271Z,959.23
2022-10-24T01:48:17.551Z,959.26
2022-10-24T01:50:43.887Z,959.37
2022-10-24T01:53:10.248Z,959.30
2022-10-24T01:55:36.584Z,959.24
2022-10-24T01:58:02.936Z,959.28
2022-10-24T02:00:29.379Z,959.23
2022-10-24T02:02:55.613Z,959.21
2022-10-24T02:05:21.937Z,959.25
2022-10-24T02:07:48.279Z,959.29
2022-10-24T02:10:14.603Z,959.26
2022-10-24T02:12:41.061Z,959.28
2022-10-24T02:15:07.275Z,959.32
2022-10-24T02:17:33.617Z,959.32
2022-10-24T02:19:59.945Z,959.25
2022-10-24T02:22:26.266Z,959.29
2022-10-24T02:24:52.612Z,959.27
2022-10-24T02:27:18.944Z,959.28
2022-10-24T02:29:45.295Z,959.32
2022-10-24T02:32:11.652Z,959.34
2022-10-24T02:34:38.031Z,959.28
2022-10-24T02:37:04.434Z,959.27
2022-10-24T02:39:30.757Z,959.26
2022-10-24T02:41:57.089Z,959.30
2022-10-24T02:44:23.411Z,959.30
2022-10-24T02:46:49.751Z,959.33
2022-10-24T02:49:16.100Z,959.28
2022-10-24T02:51:42.416Z,959.23
2022-10-24T02:54:08.768Z,959.23
2022-10-24T02:56:35.121Z,959.23
2022-10-24T02:59:01.536Z,959.30
2022-10-24T03:01:27.900Z,959.28
2022-10-24T03:03:54.179Z,959.27
2022-10-24T03:06:20.517Z,959.23
2022-10-24T03:08:46.942Z,959.18
2022-10-24T03:11:13.232Z,959.18
2022-10-24T03:13:39.606Z,959.18
2022-10-24T03:16:07.860Z,959.20
2022-10-24T03:18:32.272Z,959.22
2022-10-24T03:20:58.584Z,959.23
2022-10-24T03:23:24.931Z,959.16
2022-10-24T03:25:51.268Z,959.16
2022-10-24T03:28:17.594Z,959.16
2022-10-24T03:30:43.983Z,959.18
2022-10-24T03:33:10.324Z,959.17
2022-10-24T03:35:36.663Z,959.19
2022-10-24T03:38:02.985Z,959.18
2022-10-24T03:40:29.330Z,959.25
2022-10-24T03:42:55.673Z,959.23
2022-10-24T03:45:21.991Z,959.19
2022-10-24T03:47:48.363Z,959.24
2022-10-24T03:50:14.788Z,959.25
2022-10-24T03:52:41.052Z,959.29
2022-10-24T03:55:07.401Z,959.21
2022-10-24T03:57:33.763Z,959.23
2022-10-24T04:00:00.088Z,959.15
2022-10-24T04:02:26.492Z,959.16
2022-10-24T04:04:52.836Z,959.16
2022-10-24T04:07:19.210Z,959.20
2022-10-24T04:09:45.494Z,959.17
2022-10-24T04:12:11.878Z,959.08
2022-10-24T04:14:38.195Z,959.13
2022-10-24T04:17:04.528Z,959.06
2022-10-24T04:19:30.868Z,959.08
2022-10-24T04:21:57.198Z,959.07
2022-10-24T04:24:23.566Z,959.07
2022-10-24T04:26:50.074Z,959.19
2022-10-24T04:29:16.328Z,959.20
2022-10-24T04:31:42.676Z,959.19
2022-10-24T04:34:08.992Z,959.18
2022-10-24T04:36:35.338Z,959.18
2022-10-24T04:39:01.784Z,959.19
2022-10-24T04:41:28.114Z,959.18
2022-10-24T04:43:54.449Z,959.21
2022-10-24T04:46:20.778Z,959.25
2022-10-24T04:48:47.095Z,959.34
2022-10-24T04:51:15.354Z,959.26
2022-10-24T04:53:39.799Z,959.34
2022-10-24T04:56:06.116Z,959.34
2022-10-24T04:58:32.462Z,959.38
2022-10-24T05:00:58.865Z,959.40
2022-10-24T05:03:25.152Z,959.39
2022-10-24T05:05:51.473Z,959.33
2022-10-24T05:08:17.850Z,959.38
2022-10-24T05:10:44.196Z,959.40
2022-10-24T05:13:10.550Z,959.45
2022-10-24T05:15:36.957Z,959.42
2022-10-24T05:18:03.294Z,959.45
2022-10-24T05:20:29.679Z,959.45
2022-10-24T05:22:55.952Z,959.45
2022-10-24T05:25:22.369Z,959.42
2022-10-24T05:27:48.748Z,959.40
2022-10-24T05:30:15.074Z,959.39
2022-10-24T05:32:41.431Z,959.45
2022-10-24T05:35:07.763Z,959.41
2022-10-24T05:37:34.089Z,959.39
2022-10-24T05:40:00.430Z,959.37
2022-10-24T05:42:26.750Z,959.38
2022-10-24T05:44:53.087Z,959.47
2022-10-24T05:47:19.411Z,959.50
2022-10-24T05:49:45.754Z,959.48
2022-10-24T05:52:12.088Z,959.48
2022-10-24T05:54:48.795Z,959.50
2022-10-24T05:57:04.760Z,959.56
2022-10-24T05:59:31.105Z,959.60
2022-10-24T06:01:57.615Z,959.64
2022-10-24T06:04:23.799Z,959.68
2022-10-24T06:06:50.131Z,959.69
2022-10-24T06:09:16.481Z,959.70
2022-10-24T06:11:42.817Z,959.67
2022-10-24T06:14:09.146Z,959.68
2022-10-24T06:16:35.468Z,959.73
2022-10-24T06:19:01.810Z,959.64
2022-10-24T06:21:28.157Z,959.62
2022-10-24T06:23:54.481Z,959.66
2022-10-24T06:26:23.911Z,959.66
2022-10-24T06:28:47.181Z,959.75
2022-10-24T06:31:13.498Z,959.78
2022-10-24T06:33:39.843Z,959.81
2022-10-24T06:36:06.163Z,959.85
2022-10-24T06:38:32.575Z,959.85
2022-10-24T06:40:58.927Z,959.88
2022-10-24T06:43:25.190Z,959.84
2022-10-24T06:45:51.538Z,959.89
2022-10-24T06:48:17.839Z,959.86
2022-10-24T06:50:44.161Z,959.93
2022-10-24T06:53:10.539Z,959.90
2022-10-24T06:55:36.821Z,959.98
2022-10-24T06:58:03.159Z,959.93
2022-10-24T07:00:29.497Z,960.02
2022-10-24T07:02:55.823Z,959.93
2022-10-24T07:05:22.187Z,959.90
2022-10-24T07:07:48.636Z,959.91
2022-10-24T07:10:14.887Z,959.89
2022-10-24T07:12:41.384Z,959.93
2022-10-24T07:15:07.564Z,959.98
2022-10-24T07:17:33.895Z,959.95
2022-10-24T07:20:00.240Z,959.89
2022-10-24T07:22:28.279Z,959.86
2022-10-24T07:24:52.970Z,959.95
2022-10-24T07:27:19.373Z,959.86
2022-10-24T07:29:45.712Z,959.83
2022-10-24T07:32:12.058Z,959.86
2022-10-24T07:34:38.405Z,959.90
2022-10-24T07:37:04.734Z,959.86
2022-10-24T07:39:31.074Z,959.90
2022-10-24T07:41:57.441Z,959.87
2022-10-24T07:44:23.777Z,959.88
2022-10-24T07:46:50.106Z,959.92
2022-10-24T07:49:16.426Z,959.95
2022-10-24T07:51:42.784Z,959.90
2022-10-24T07:54:09.127Z,959.88
2022-10-24T07:56:35.460Z,959.84
2022-10-24T07:59:09.163Z,959.86
2022-10-24T08:01:28.178Z,959.80
2022-10-24T08:03:54.422Z,959.81
2022-10-24T08:06:20.770Z,959.79
2022-10-24T08:08:47.114Z,959.75
2022-10-24T08:11:13.438Z,959.77
2022-10-24T08:13:39.780Z,959.74
2022-10-24T08:16:06.210Z,959.71
2022-10-24T08:18:35.766Z,959.61
2022-10-24T08:20:58.870Z,959.65
2022-10-24T08:23:25.667Z,959.60
2022-10-24T08:25:51.541Z,959.66
2022-10-24T08:28:17.908Z,959.61
2022-10-24T08:30:44.230Z,959.68
2022-10-24T08:33:10.569Z,959.66
2022-10-24T08:35:36.914Z,959.64
2022-10-24T08:38:03.262Z,959.54
2022-10-24T08:40:29.593Z,959.53
2022-10-24T08:42:55.916Z,959.56
2022-10-24T08:45:22.268Z,959.47
2022-10-24T08:47:48.614Z,959.48
2022-10-24T08:50:14.938Z,959.42
2022-10-24T08:52:41.294Z,959.41
2022-10-24T08:55:09.115Z,959.37
2022-10-24T09:00:00.299Z,959.33
2022-10-24T09:02:26.805Z,959.30
2022-10-24T09:04:53.021Z,959.32
2022-10-24T09:07:19.419Z,959.26
2022-10-24T09:09:45.687Z,959.22
2022-10-24T09:12:12.011Z,959.19
2022-10-24T09:14:38.354Z,959.16
2022-10-24T09:17:04.707Z,959.20
2022-10-24T09:19:31.033Z,959.15
2022-10-24T09:21:57.379Z,959.17
2022-10-24T09:24:23.720Z,959.15
2022-10-24T09:26:50.040Z,959.17
2022-10-24T09:29:16.369Z,959.14
2022-10-24T09:31:42.723Z,959.13
2022-10-24T09:34:09.038Z,959.04
2022-10-24T09:36:35.387Z,959.07
2022-10-24T09:39:01.723Z,959.06
2022-10-24T09:41:28.093Z,959.06
2022-10-24T09:43:54.457Z,959.03
2022-10-24T09:46:20.821Z,958.99
2022-10-24T09:48:47.100Z,958.95
2022-10-24T09:51:13.446Z,958.95
2022-10-24T09:53:39.773Z,958.92
2022-10-24T09:56:06.100Z,958.98
2022-10-24T09:58:32.465Z,958.97
2022-10-24T10:00:58.854Z,958.92
2022-10-24T10:03:25.110Z,958.88
2022-10-24T10:05:51.456Z,958.85
2022-10-24T10:08:17.803Z,958.85
2022-10-24T10:10:44.143Z,958.77
2022-10-24T10:13:10.475Z,958.74
2022-10-24T10:15:36.819Z,958.74
2022-10-24T10:18:03.139Z,958.72
2022-10-24T10:20:29.468Z,958.72
2022-10-24T10:22:55.793Z,958.69
2022-10-24T10:25:22.119Z,958.61
2022-10-24T10:27:48.503Z,958.68
2022-10-24T10:30:14.996Z,958.58
2022-10-24T10:32:41.122Z,958.55
2022-10-24T10:35:07.478Z,958.49
2022-10-24T10:37:33.838Z,958.41
2022-10-24T10:40:00.174Z,958.42
2022-10-24T10:42:26.525Z,958.42
2022-10-24T10:44:52.886Z,958.36
2022-10-24T10:47:21.718Z,958.37
2022-10-24T10:49:45.548Z,958.31
2022-10-24T10:52:11.911Z,958.27
2022-10-24T10:54:38.235Z,958.23
2022-10-24T10:57:04.586Z,958.17
2022-10-24T10:59:30.911Z,958.22
2022-10-24T11:01:57.410Z,958.18
2022-10-24T11:04:23.600Z,958.16
2022-10-24T11:06:50.056Z,958.11
2022-10-24T11:09:16.298Z,958.06
2022-10-24T11:11:42.622Z,958.03
2022-10-24T11:14:08.986Z,958.03
2022-10-24T11:16:35.350Z,957.99
2022-10-24T11:19:01.690Z,957.97
2022-10-24T11:21:28.040Z,957.99
2022-10-24T11:23:54.381Z,957.98
2022-10-24T11:26:20.731Z,957.93
2022-10-24T11:28:47.099Z,957.96
2022-10-24T11:31:13.460Z,957.85
2022-10-24T11:33:39.777Z,957.78
2022-10-24T11:36:06.157Z,957.72
2022-10-24T11:38:32.525Z,957.73
2022-10-24T11:40:59.926Z,957.63
2022-10-24T11:43:25.196Z,957.63
2022-10-24T11:45:51.530Z,957.57
2022-10-24T11:48:17.844Z,957.53
2022-10-24T11:50:44.191Z,957.47
2022-10-24T11:53:10.533Z,957.51
2022-10-24T11:55:36.883Z,957.52
2022-10-24T11:58:03.231Z,957.44
2022-10-24T12:00:29.569Z,957.39
2022-10-24T12:02:55.936Z,957.40
2022-10-24T12:05:22.236Z,957.34
2022-10-24T12:07:48.778Z,957.30
2022-10-24T12:10:14.917Z,957.29
2022-10-24T12:12:41.236Z,957.28
2022-10-24T12:15:07.591Z,957.21
2022-10-24T12:17:33.907Z,957.20
2022-10-24T12:20:00.235Z,957.18
2022-10-24T12:24:52.927Z,957.14
2022-10-24T12:27:19.284Z,957.09
2022-10-24T12:29:45.624Z,957.06
2022-10-24T12:32:11.964Z,957.04
2022-10-24T12:34:38.305Z,957.00
2022-10-24T12:37:04.624Z,956.95
2022-10-24T12:39:30.958Z,956.95
2022-10-24T12:41:57.308Z,956.96
2022-10-24T12:44:23.629Z,956.92
2022-10-24T12:46:50.009Z,956.95
2022-10-24T12:49:16.354Z,956.91
2022-10-24T12:51:42.684Z,956.98
2022-10-24T12:54:09.000Z,956.86
2022-10-24T12:56:35.416Z,956.89
2022-10-24T12:59:01.767Z,956.86
2022-10-24T13:01:28.227Z,956.84
2022-10-24T13:03:54.407Z,956.76
2022-10-24T13:06:20.761Z,956.77
2022-10-24T13:08:47.071Z,956.80
2022-10-24T13:11:13.419Z,956.79
2022-10-24T13:13:39.784Z,956.71
2022-10-24T13:16:06.150Z,956.77
2022-10-24T13:18:32.493Z,956.80
2022-10-24T13:20:58.854Z,956.74
2022-10-24T13:23:25.168Z,956.67
2022-10-24T13:25:51.513Z,956.74
2022-10-24T13:28:17.831Z,956.67
2022-10-24T13:30:46.047Z,956.69
2022-10-24T13:33:10.562Z,956.70
2022-10-24T13:35:36.913Z,956.70
2022-10-24T13:38:07.091Z,956.67
2022-10-24T13:40:29.555Z,956.68
2022-10-24T13:42:55.905Z,956.67
2022-10-24T13:45:22.248Z,956.64
2022-10-24T13:47:48.705Z,956.64
2022-10-24T13:50:14.915Z,956.69
2022-10-24T13:52:44.491Z,956.62
2022-10-24T13:55:07.632Z,956.62
2022-10-24T13:57:34.023Z,956.52
2022-10-24T14:00:00.419Z,956.53
2022-10-24T14:02:29.766Z,956.54
2022-10-24T14:04:57.439Z,956.48
2022-10-24T14:07:19.398Z,956.51
2022-10-24T14:09:45.779Z,956.47
2022-10-24T14:12:12.057Z,956.43
2022-10-24T14:14:38.405Z,956.41
2022-10-24T14:17:04.720Z,956.39
2022-10-24T14:19:32.542Z,956.37
2022-10-24T14:21:57.384Z,956.40
2022-10-24T14:24:23.738Z,956.45
2022-10-24T14:26:50.079Z,956.40
2022-10-24T14:29:16.447Z,956.47
2022-10-24T14:31:42.800Z,956.40
2022-10-24T14:34:09.124Z,956.45
2022-10-24T14:36:35.447Z,956.46
2022-10-24T14:39:01.823Z,956.41
2022-10-24T14:41:29.893Z,956.44
2022-10-24T14:43:54.570Z,956.43
2022-10-24T14:46:25.555Z,956.35
2022-10-24T14:48:47.259Z,956.30
2022-10-24T14:51:13.595Z,956.34
2022-10-24T14:53:40.009Z,956.34
2022-10-24T14:56:06.354Z,956.35
2022-10-24T14:58:32.703Z,956.29
2022-10-24T15:00:59.074Z,956.33
2022-10-24T15:03:25.387Z,956.34
2022-10-24T15:05:51.728Z,956.31
2022-10-24T15:08:22.766Z,956.26
2022-10-24T15:10:44.441Z,956.26
2022-10-24T15:13:10.760Z,956.20
2022-10-24T15:15:37.081Z,956.19
2022-10-24T15:18:03.457Z,956.30
2022-10-24T15:20:29.769Z,956.25
2022-10-24T15:22:56.115Z,956.30
2022-10-24T15:27:49.097Z,956.28
2022-10-24T15:30:15.096Z,956.31
2022-10-24T15:32:41.495Z,956.34
2022-10-24T15:35:07.843Z,956.34
2022-10-24T15:37:34.163Z,956.34
2022-10-24T15:40:00.501Z,956.34
2022-10-24T15:42:26.877Z,956.38
2022-10-24T15:44:53.193Z,956.37
2022-10-24T15:47:19.538Z,956.35
2022-10-24T15:49:45.883Z,956.39
2022-10-24T15:52:12.237Z,956.38
2022-10-24T15:54:38.562Z,956.35
2022-10-24T15:57:05.443Z,956.35
2022-10-24T15:59:31.262Z,956.35
2022-10-24T16:01:57.623Z,956.35
2022-10-24T16:04:23.936Z,956.37
2022-10-24T16:06:50.282Z,956.41
2022-10-24T16:09:16.591Z,956.38
2022-10-24T16:11:42.999Z,956.41
2022-10-24T16:14:09.265Z,956.42
2022-10-24T16:16:35.611Z,956.43
2022-10-24T16:19:01.965Z,956.39
2022-10-24T16:21:28.315Z,956.43
2022-10-24T16:23:55.151Z,956.46
2022-10-24T16:26:21.491Z,956.50
2022-10-24T16:28:47.856Z,956.51
2022-10-24T16:31:14.222Z,956.57
2022-10-24T16:33:40.559Z,956.53
2022-10-24T16:36:06.932Z,956.56
2022-10-24T16:38:33.288Z,956.58
2022-10-24T16:40:59.613Z,956.65
2022-10-24T16:43:25.958Z,956.58
2022-10-24T16:45:52.305Z,956.65
2022-10-24T16:48:18.658Z,956.57
2022-10-24T16:50:46.420Z,956.60
2022-10-24T16:53:11.432Z,956.59
2022-10-24T16:55:37.733Z,956.61
2022-10-24T16:58:04.075Z,956.60
2022-10-24T17:00:30.564Z,956.61
2022-10-24T17:02:56.757Z,956.64
2022-10-24T17:05:23.081Z,956.61
2022-10-24T17:07:49.539Z,956.63
2022-10-24T17:10:18.382Z,956.61
2022-10-24T17:12:42.168Z,956.55
2022-10-24T17:15:08.590Z,956.57
2022-10-24T17:17:34.915Z,956.61
2022-10-24T17:20:01.263Z,956.58
2022-10-24T17:22:27.665Z,956.56
2022-10-24T17:24:53.937Z,956.59
2022-10-24T17:27:20.322Z,956.63
2022-10-24T17:29:46.665Z,956.67
2022-10-24T17:32:13.173Z,956.65
2022-10-24T17:34:41.158Z,956.67
2022-10-24T17:37:07.506Z,956.63
2022-10-24T17:39:33.907Z,956.58
2022-10-24T17:42:00.236Z,956.61
2022-10-24T17:44:26.745Z,956.66
2022-10-24T17:46:56.024Z,956.73
2022-10-24T17:49:21.714Z,956.82
2022-10-24T17:51:45.771Z,956.72
2022-10-24T17:54:12.261Z,956.77
2022-10-24T17:56:38.579Z,956.80
2022-10-24T17:59:05.034Z,956.73
2022-10-24T18:01:31.456Z,956.70
2022-10-24T18:03:57.729Z,956.62
2022-10-24T18:06:24.032Z,956.66
2022-10-24T18:08:50.413Z,956.72
2022-10-24T18:11:16.755Z,956.71
2022-10-24T18:13:43.096Z,956.63
2022-10-24T18:16:09.464Z,956.68
2022-10-24T18:18:35.808Z,956.66
2022-10-24T18:21:02.147Z,956.68
2022-10-24T18:23:28.472Z,956.60
2022-10-24T18:25:54.795Z,956.59
2022-10-24T18:28:21.143Z,956.67
2022-10-24T18:30:47.521Z,956.63
2022-10-24T18:33:13.846Z,956.61
2022-10-24T18:35:40.240Z,956.63
2022-10-24T18:38:06.560Z,956.62
2022-10-24T18:40:32.923Z,956.62
2022-10-24T18:42:59.260Z,956.61
2022-10-24T18:45:25.585Z,956.60
2022-10-24T18:47:51.946Z,956.63
2022-10-24T18:50:18.250Z,956.58
2022-10-24T18:52:44.587Z,956.63
2022-10-24T18:55:10.937Z,956.68
2022-10-24T18:57:37.293Z,956.61
2022-10-24T19:00:03.629Z,956.61
2022-10-24T19:02:30.061Z,956.59
2022-10-24T19:04:56.298Z,956.59
2022-10-24T19:07:22.619Z,956.59
2022-10-24T19:09:48.966Z,956.61
2022-10-24T19:12:15.310Z,956.61
2022-10-24T19:14:41.646Z,956.60
2022-10-24T19:17:07.997Z,956.63
2022-10-24T19:19:34.632Z,956.60
2022-10-24T19:22:00.775Z,956.61
2022-10-24T19:24:27.046Z,956.65
2022-10-24T19:26:53.392Z,956.65
2022-10-24T19:29:19.768Z,956.69
2022-10-24T19:31:46.113Z,956.70
2022-10-24T19:34:12.455Z,956.67
2022-10-24T19:36:38.767Z,956.72
2022-10-24T19:39:05.117Z,956.72
2022-10-24T19:41:31.466Z,956.70
2022-10-24T19:43:57.852Z,956.72
2022-10-24T19:46:24.236Z,956.72
2022-10-24T19:48:50.558Z,956.72
2022-10-24T19:51:16.885Z,956.69
2022-10-24T19:53:43.239Z,956.72
2022-10-24T19:56:09.588Z,956.70
2022-10-24T19:58:35.994Z,956.71
2022-10-24T20:01:02.419Z,956.72
2022-10-24T20:03:28.714Z,956.64
2022-10-24T20:05:55.061Z,956.75
2022-10-24T20:08:21.412Z,956.74
2022-10-24T20:10:47.763Z,956.72
2022-10-24T20:13:14.149Z,956.77
2022-10-24T20:15:40.504Z,956.73
2022-10-24T20:18:06.849Z,956.74
2022-10-24T20:20:33.227Z,956.72
2022-10-24T20:22:59.550Z,956.75
2022-10-24T20:25:25.875Z,956.82
2022-10-24T20:27:52.218Z,956.77
2022-10-24T20:30:18.573Z,956.76
2022-10-24T20:32:44.938Z,956.82
2022-10-24T20:35:11.281Z,956.79
2022-10-24T20:37:37.641Z,956.88
2022-10-24T20:40:03.977Z,956.94
2022-10-24T20:42:30.315Z,956.87
2022-10-24T20:44:56.672Z,956.99
2022-10-24T20:47:23.016Z,957.03
2022-10-24T20:49:49.369Z,957.02
2022-10-24T20:52:15.719Z,956.94
2022-10-24T20:54:42.048Z,956.92
2022-10-24T20:57:08.365Z,956.95
2022-10-24T20:59:34.747Z,956.96
2022-10-24T21:02:01.196Z,956.89
2022-10-24T21:04:27.411Z,956.79
2022-10-24T21:06:53.755Z,956.78
2022-10-24T21:09:20.100Z,956.76
2022-10-24T21:11:46.448Z,956.87
2022-10-24T21:14:12.795Z,956.93
2022-10-24T21:16:39.137Z,956.86
2022-10-24T21:19:05.487Z,956.85
2022-10-24T21:21:31.820Z,956.88
2022-10-24T21:24:02.328Z,956.86
2022-10-24T21:26:24.488Z,956.87
2022-10-24T21:28:53.989Z,956.82
2022-10-24T21:31:17.149Z,956.90
2022-10-24T21:33:43.515Z,956.93
2022-10-24T21:36:09.849Z,956.88
2022-10-24T21:38:36.199Z,956.91
2022-10-24T21:41:02.517Z,956.94
2022-10-24T21:43:28.846Z,957.00
2022-10-24T21:45:55.207Z,956.99
2022-10-24T21:48:23.995Z,956.96
2022-10-24T21:50:47.894Z,956.91
2022-10-24T21:53:14.233Z,956.85
2022-10-24T21:55:40.552Z,956.71
2022-10-24T21:58:06.899Z,956.85
2022-10-24T22:00:35.640Z,956.71
2022-10-24T22:02:59.552Z,956.74
2022-10-24T22:05:25.909Z,956.87
2022-10-24T22:07:52.474Z,956.85
2022-10-24T22:10:18.554Z,956.87
2022-10-24T22:12:44.892Z,956.84
2022-10-24T22:15:11.231Z,956.85
2022-10-24T22:17:37.558Z,956.83
2022-10-24T22:20:03.876Z,956.81
2022-10-24T22:22:30.197Z,956.85
2022-10-24T22:24:56.579Z,956.77
2022-10-24T22:27:22.916Z,956.78
2022-10-24T22:29:49.254Z,956.77
2022-10-24T22:32:15.676Z,956.79
2022-10-24T22:34:41.997Z,956.81
2022-10-24T22:37:08.322Z,956.78
2022-10-24T22:39:34.640Z,956.83
2022-10-24T22:42:00.967Z,956.83
2022-10-24T22:44:27.316Z,956.86
2022-10-24T22:46:53.639Z,956.81
2022-10-24T22:49:19.996Z,956.82
2022-10-24T22:51:46.314Z,956.85
2022-10-24T22:54:12.649Z,956.79
2022-10-24T22:56:38.984Z,956.78
2022-10-24T22:59:05.305Z,956.86
2022-10-24T23:01:31.765Z,956.83
2022-10-24T23:03:57.980Z,956.81
2022-10-24T23:06:24.301Z,956.79
2022-10-24T23:08:50.647Z,956.77
2022-10-24T23:11:16.982Z,956.71
2022-10-24T23:13:43.303Z,956.81
2022-10-24T23:16:09.650Z,956.82
2022-10-24T23:18:35.991Z,956.84
2022-10-24T23:21:02.315Z,956.83
2022-10-24T23:23:29.747Z,956.89
2022-10-24T23:25:54.960Z,956.78
2022-10-24T23:28:21.288Z,956.81
2022-10-24T23:30:47.628Z,956.79
2022-10-24T23:33:13.969Z,956.79
2022-10-24T23:35:40.305Z,956.84
2022-10-24T23:38:06.649Z,956.87
2022-10-24T23:40:32.961Z,956.78
2022-10-24T23:42:59.313Z,956.86
2022-10-24T23:45:25.668Z,956.85
2022-10-24T23:47:51.990Z,956.84
2022-10-24T23:50:18.330Z,956.81
2022-10-24T23:52:44.876Z,956.88
2022-10-24T23:55:11.052Z,956.83
2022-10-24T23:57:37.378Z,956.83
